Time;durP1;ratioP1;P1;durP2;ratioP2;P2;SDS_P1;SDS_P2;PMS_P1;PMS_P2;Temp;Humidity;BMP_temperature;BMP_pressure;BME280_temperature;BME280_humidity;BME280_pressure;Samples;Min_cycle;Max_cycle;Signal;HPM_P1;HPM_P2
2021/12/22 00:00:21;;;;;;;28.20;17.33;;;-2.20;99.90;;;;;;4992235;28;20054;-83
2021/12/22 00:02:48;;;;;;;29.75;16.10;;;-2.30;99.90;;;;;;4993221;28;20062;-83
2021/12/22 00:05:16;;;;;;;29.17;17.50;;;-2.20;99.90;;;;;;4996032;28;20112;-83
2021/12/22 00:07:42;;;;;;;34.35;15.77;;;-2.30;99.90;;;;;;4993651;28;20054;-83
2021/12/22 00:10:09;;;;;;;30.35;16.48;;;-2.30;99.90;;;;;;4996216;28;20492;-83
2021/12/22 00:12:35;;;;;;;27.08;16.20;;;-2.30;99.90;;;;;;4992595;28;20061;-82
2021/12/22 00:15:02;;;;;;;22.77;14.93;;;-2.30;99.90;;;;;;4994555;28;20057;-83
2021/12/22 00:17:28;;;;;;;29.17;16.85;;;-2.30;99.90;;;;;;4994460;28;20049;-83
2021/12/22 00:19:55;;;;;;;27.90;16.60;;;-2.30;99.90;;;;;;4992089;28;20050;-84
2021/12/22 00:22:21;;;;;;;31.17;16.60;;;-2.40;99.90;;;;;;5013119;28;20164;-84
2021/12/22 00:24:48;;;;;;;23.08;14.90;;;-2.40;99.90;;;;;;4992046;28;20046;-84
2021/12/22 00:27:14;;;;;;;31.88;15.43;;;-2.40;99.90;;;;;;4994720;28;20061;-84
2021/12/22 00:29:42;;;;;;;22.15;13.68;;;-2.40;99.90;;;;;;5001665;28;20054;-84
2021/12/22 00:32:11;;;;;;;23.98;15.85;;;-2.40;99.90;;;;;;4989804;28;20409;-83
2021/12/22 00:34:45;;;;;;;24.85;15.95;;;-2.50;99.90;;;;;;5008996;28;20042;-84
2021/12/22 00:37:11;;;;;;;25.75;16.08;;;-2.40;99.90;;;;;;4990431;28;20424;-84
2021/12/22 00:39:38;;;;;;;27.33;17.08;;;-2.50;99.90;;;;;;4994241;28;20046;-84
2021/12/22 00:42:04;;;;;;;23.20;14.73;;;-2.50;99.90;;;;;;4986181;28;20068;-83
2021/12/22 00:44:31;;;;;;;22.25;16.95;;;-2.50;99.90;;;;;;5011069;28;20049;-83
2021/12/22 00:46:57;;;;;;;38.38;17.42;;;-2.50;99.90;;;;;;4985082;28;20053;-83
2021/12/22 00:49:24;;;;;;;21.27;15.90;;;-2.60;99.90;;;;;;4984849;28;20065;-82
2021/12/22 00:51:50;;;;;;;26.38;15.82;;;-2.50;99.90;;;;;;4986666;28;20045;-83
2021/12/22 00:54:17;;;;;;;30.35;16.83;;;-2.60;99.90;;;;;;4994711;28;20081;-82
2021/12/22 00:56:43;;;;;;;26.35;16.10;;;-2.60;99.90;;;;;;5011734;28;20409;-83
2021/12/22 00:59:10;;;;;;;24.88;14.27;;;-2.60;99.90;;;;;;4994407;28;20046;-82
2021/12/22 01:01:37;;;;;;;28.48;14.55;;;-2.50;99.90;;;;;;4994654;28;20077;-83
2021/12/22 01:04:03;;;;;;;22.73;14.70;;;-2.60;99.90;;;;;;4991192;28;20098;-83
2021/12/22 01:06:30;;;;;;;27.05;13.80;;;-2.60;99.90;;;;;;4994022;28;20654;-82
2021/12/22 01:08:56;;;;;;;23.75;15.73;;;-2.60;99.90;;;;;;4992813;28;20050;-84
2021/12/22 01:11:23;;;;;;;23.30;13.35;;;-2.60;99.90;;;;;;4992684;28;20046;-83
2021/12/22 01:13:49;;;;;;;21.77;14.43;;;-2.60;99.90;;;;;;4989166;28;20050;-84
2021/12/22 01:16:16;;;;;;;23.50;14.05;;;-2.60;99.90;;;;;;4987056;28;20054;-83
2021/12/22 01:18:43;;;;;;;25.58;13.68;;;-2.60;99.90;;;;;;4986641;28;20046;-83
2021/12/22 01:21:16;;;;;;;25.45;15.13;;;-2.60;99.90;;;;;;4995682;28;20058;-83
2021/12/22 01:23:59;;;;;;;31.25;14.63;;;-2.60;99.90;;;;;;4992510;28;20117;-83
2021/12/22 01:26:26;;;;;;;22.38;14.63;;;-2.60;99.90;;;;;;4988051;28;20065;-83
2021/12/22 01:28:52;;;;;;;20.33;12.07;;;-2.70;99.90;;;;;;4994045;28;20061;-84
2021/12/22 01:31:19;;;;;;;22.17;14.80;;;-2.70;99.90;;;;;;4985606;28;20433;-83
2021/12/22 01:33:45;;;;;;;19.02;13.63;;;-2.70;99.90;;;;;;4983331;28;20508;-83
2021/12/22 01:36:12;;;;;;;26.80;13.63;;;-2.70;99.90;;;;;;4994140;28;20049;-82
2021/12/22 01:38:38;;;;;;;23.42;14.43;;;-2.80;99.90;;;;;;4991595;28;20057;-83
2021/12/22 01:41:05;;;;;;;22.70;12.70;;;-2.90;99.90;;;;;;4993925;28;20056;-83
2021/12/22 01:43:31;;;;;;;27.58;14.38;;;-2.80;99.90;;;;;;4990785;28;20109;-84
2021/12/22 01:46:19;;;;;;;23.58;14.35;;;-2.90;99.90;;;;;;4990658;28;20061;-84
2021/12/22 01:51:31;;;;;;;18.25;11.93;;;-2.90;99.90;;;;;;4977417;28;20493;-83
2021/12/22 01:53:57;;;;;;;21.92;13.40;;;-2.90;99.90;;;;;;4984543;28;20046;-83
2021/12/22 01:56:26;;;;;;;20.58;11.15;;;-2.90;99.90;;;;;;4993627;28;20050;-84
2021/12/22 01:58:53;;;;;;;19.15;12.82;;;-3.00;99.90;;;;;;4994495;28;20046;-83
2021/12/22 02:01:19;;;;;;;24.98;12.80;;;-3.00;99.90;;;;;;4985868;28;20054;-83
2021/12/22 02:03:46;;;;;;;17.40;11.68;;;-3.00;99.90;;;;;;4989504;28;20049;-83
2021/12/22 02:06:12;;;;;;;21.70;12.35;;;-3.00;99.90;;;;;;4992225;28;20053;-84
2021/12/22 02:08:39;;;;;;;22.85;13.30;;;-3.10;99.90;;;;;;4986085;28;20058;-84
2021/12/22 02:11:05;;;;;;;20.05;13.05;;;-3.00;99.90;;;;;;4992738;28;20053;-84
2021/12/22 02:13:36;;;;;;;28.45;13.80;;;-3.00;99.90;;;;;;4990240;28;20054;-85
2021/12/22 02:16:06;;;;;;;18.88;12.23;;;-3.00;99.90;;;;;;4997397;28;20520;-85
2021/12/22 02:18:33;;;;;;;21.35;12.40;;;-3.00;99.90;;;;;;4991376;28;20053;-86
2021/12/22 02:20:59;;;;;;;22.00;12.85;;;-3.00;99.90;;;;;;4992014;28;20056;-85
2021/12/22 02:23:26;;;;;;;16.23;12.07;;;-3.00;99.90;;;;;;4991593;28;20057;-85
2021/12/22 02:25:57;;;;;;;17.65;12.38;;;-3.10;99.90;;;;;;4991441;28;20050;-85
2021/12/22 02:28:28;;;;;;;16.10;11.63;;;-3.10;99.90;;;;;;4985640;28;20172;-84
2021/12/22 02:30:55;;;;;;;23.45;13.75;;;-3.10;99.90;;;;;;4991232;28;20053;-84
2021/12/22 02:33:24;;;;;;;19.58;12.70;;;-3.10;99.90;;;;;;4991374;28;20480;-85
2021/12/22 02:36:09;;;;;;;21.08;12.07;;;-3.00;99.90;;;;;;4991786;28;20133;-85
2021/12/22 02:38:35;;;;;;;17.85;12.93;;;-3.10;99.90;;;;;;4986423;28;20054;-85
2021/12/22 02:41:02;;;;;;;20.13;13.63;;;-3.10;99.90;;;;;;4997404;28;20566;-86
2021/12/22 02:43:32;;;;;;;22.60;13.07;;;-3.10;99.90;;;;;;4988545;28;20111;-86
2021/12/22 02:45:58;;;;;;;21.45;11.63;;;-3.10;99.90;;;;;;4991051;28;20050;-85
2021/12/22 02:48:25;;;;;;;23.25;14.05;;;-3.20;99.90;;;;;;4978783;28;20058;-85
2021/12/22 02:50:54;;;;;;;24.65;13.85;;;-3.10;99.90;;;;;;4989661;28;20064;-84
2021/12/22 02:53:26;;;;;;;21.80;12.43;;;-3.20;99.90;;;;;;4992016;28;20076;-84
2021/12/22 02:55:59;;;;;;;17.48;12.50;;;-3.20;99.90;;;;;;4983427;28;20064;-85
2021/12/22 02:58:34;;;;;;;30.77;11.77;;;-3.30;99.90;;;;;;4993276;28;20050;-85
2021/12/22 03:01:23;;;;;;;18.10;14.02;;;-3.30;99.90;;;;;;4993744;28;20057;-85
2021/12/22 03:03:56;;;;;;;18.95;12.55;;;-3.40;99.90;;;;;;4985609;28;20046;-85
2021/12/22 03:06:30;;;;;;;20.50;13.75;;;-3.40;99.90;;;;;;4982365;28;20150;-84
2021/12/22 03:08:56;;;;;;;18.98;12.30;;;-3.50;99.90;;;;;;4991033;28;20058;-85
2021/12/22 03:11:23;;;;;;;18.48;12.57;;;-3.50;99.90;;;;;;4989819;28;20052;-84
2021/12/22 03:13:50;;;;;;;20.77;13.73;;;-3.50;99.90;;;;;;4989288;28;20069;-85
2021/12/22 03:16:16;;;;;;;23.98;13.55;;;-3.50;99.90;;;;;;4983747;28;20046;-85
2021/12/22 03:18:43;;;;;;;20.85;14.18;;;-3.60;99.90;;;;;;4986512;28;20123;-85
2021/12/22 03:21:20;;;;;;;26.38;14.27;;;-3.60;99.90;;;;;;4992070;28;20049;-84
2021/12/22 03:23:46;;;;;;;16.35;13.73;;;-3.60;99.90;;;;;;4989256;28;20046;-83
2021/12/22 03:26:14;;;;;;;22.08;13.07;;;-3.70;99.90;;;;;;4990660;28;20053;-83
2021/12/22 03:28:40;;;;;;;22.23;13.65;;;-3.60;99.90;;;;;;4990296;28;20123;-83
2021/12/22 03:31:07;;;;;;;19.92;13.75;;;-3.60;99.90;;;;;;4991372;28;20419;-83
2021/12/22 03:33:34;;;;;;;21.92;13.30;;;-3.70;99.90;;;;;;5000011;28;20042;-83
2021/12/22 03:36:00;;;;;;;19.63;12.25;;;-3.60;99.90;;;;;;4999069;28;20057;-83
2021/12/22 03:38:27;;;;;;;23.90;13.93;;;-3.70;99.90;;;;;;4999298;28;20477;-83
2021/12/22 03:40:53;;;;;;;16.65;11.82;;;-3.60;99.90;;;;;;4998690;28;20480;-83
2021/12/22 03:43:20;;;;;;;23.75;13.65;;;-3.60;99.90;;;;;;5000088;28;20481;-83
2021/12/22 03:45:46;;;;;;;22.35;14.05;;;-3.70;99.90;;;;;;4985439;28;20042;-83
2021/12/22 03:48:16;;;;;;;22.52;13.38;;;-3.70;99.90;;;;;;4994178;28;20061;-83
2021/12/22 03:50:43;;;;;;;23.63;14.13;;;-3.70;99.90;;;;;;4990108;28;20492;-84
2021/12/22 03:53:09;;;;;;;24.52;13.55;;;-3.70;99.90;;;;;;4993430;28;20042;-83
2021/12/22 03:55:36;;;;;;;20.85;13.30;;;-3.80;99.90;;;;;;4991415;28;20107;-84
2021/12/22 03:58:02;;;;;;;22.48;12.82;;;-3.80;99.90;;;;;;4996342;28;20045;-84
2021/12/22 04:00:30;;;;;;;21.83;13.77;;;-3.90;99.90;;;;;;5009055;28;20054;-84
2021/12/22 04:02:56;;;;;;;22.92;14.10;;;-3.90;99.90;;;;;;5014124;28;20049;-85
2021/12/22 04:05:23;;;;;;;21.98;14.02;;;-4.00;99.90;;;;;;4990999;28;20046;-85
2021/12/22 04:07:49;;;;;;;22.60;14.70;;;-4.00;99.90;;;;;;4995352;28;20053;-84
2021/12/22 04:10:25;;;;;;;26.38;13.73;;;-3.90;99.90;;;;;;4996512;28;20054;-85
2021/12/22 04:12:52;;;;;;;21.67;13.77;;;-4.00;99.90;;;;;;4992072;28;20444;-85
2021/12/22 04:15:18;;;;;;;18.33;12.70;;;-4.00;99.90;;;;;;4991832;28;20493;-85
2021/12/22 04:17:45;;;;;;;21.25;13.40;;;-4.10;99.90;;;;;;4992453;28;20046;-85
2021/12/22 04:20:11;;;;;;;26.42;14.30;;;-4.00;99.90;;;;;;4992062;28;20100;-85
2021/12/22 04:22:38;;;;;;;20.88;14.10;;;-4.00;99.90;;;;;;5002079;28;20050;-85
2021/12/22 04:25:05;;;;;;;23.30;14.60;;;-4.00;99.90;;;;;;4992620;28;20085;-86
2021/12/22 04:27:32;;;;;;;20.77;14.20;;;-4.00;99.90;;;;;;4986788;28;20054;-86
2021/12/22 04:29:58;;;;;;;17.35;13.52;;;-4.00;99.90;;;;;;4992735;28;20128;-85
2021/12/22 04:32:25;;;;;;;23.52;14.00;;;-4.00;99.90;;;;;;4991841;28;20058;-86
2021/12/22 04:34:52;;;;;;;17.88;12.63;;;-4.10;99.90;;;;;;4991223;28;20058;-86
2021/12/22 04:37:18;;;;;;;26.83;14.05;;;-4.10;99.90;;;;;;4982077;28;20065;-85
2021/12/22 04:39:45;;;;;;;25.17;14.35;;;-4.10;99.90;;;;;;4990068;28;20058;-85
2021/12/22 04:42:11;;;;;;;27.52;14.90;;;-4.20;99.90;;;;;;4985284;28;20053;-85
2021/12/22 04:44:38;;;;;;;21.08;14.73;;;-4.20;99.90;;;;;;4986163;28;20053;-85
2021/12/22 04:47:04;;;;;;;22.42;14.65;;;-4.20;99.90;;;;;;4989200;28;20058;-86
2021/12/22 04:49:31;;;;;;;24.30;14.65;;;-4.20;99.90;;;;;;4987126;28;20064;-84
2021/12/22 04:51:59;;;;;;;17.75;12.48;;;-4.20;99.90;;;;;;4987954;28;20046;-86
2021/12/22 04:54:34;;;;;;;19.95;13.63;;;-4.20;99.90;;;;;;4984149;28;20050;-85
2021/12/22 04:57:01;;;;;;;17.42;12.88;;;-4.20;99.90;;;;;;4981035;28;20061;-85
2021/12/22 04:59:27;;;;;;;24.38;13.02;;;-4.10;99.90;;;;;;4990734;28;20054;-84
2021/12/22 05:01:56;;;;;;;18.63;14.05;;;-4.10;99.90;;;;;;4986697;28;20237;-86
2021/12/22 05:04:22;;;;;;;22.63;14.55;;;-4.10;99.90;;;;;;4989436;28;20405;-85
2021/12/22 05:06:49;;;;;;;22.77;14.43;;;-4.10;99.90;;;;;;4986510;28;20473;-85
2021/12/22 05:09:15;;;;;;;21.38;13.90;;;-4.20;99.90;;;;;;4990348;28;20062;-86
2021/12/22 05:11:42;;;;;;;19.77;14.68;;;-4.20;99.90;;;;;;4992639;28;20050;-84
2021/12/22 05:14:09;;;;;;;24.13;15.93;;;-4.20;99.90;;;;;;4983316;28;20165;-84
2021/12/22 05:16:44;;;;;;;22.02;14.35;;;-4.20;99.90;;;;;;4978335;28;20086;-83
2021/12/22 05:19:14;;;;;;;21.42;14.25;;;-4.30;99.90;;;;;;4993082;28;20366;-84
2021/12/22 05:21:40;;;;;;;22.40;14.50;;;-4.30;99.90;;;;;;4988512;28;20051;-85
2021/12/22 05:24:07;;;;;;;23.45;14.70;;;-4.30;99.90;;;;;;4993639;28;20126;-85
2021/12/22 05:26:33;;;;;;;21.35;14.88;;;-4.40;99.90;;;;;;4986462;28;20047;-85
2021/12/22 05:29:00;;;;;;;20.77;13.57;;;-4.40;99.90;;;;;;4989903;28;20519;-85
2021/12/22 05:31:27;;;;;;;24.75;14.05;;;-4.40;99.90;;;;;;4985836;28;20054;-85
2021/12/22 05:33:53;;;;;;;24.33;16.05;;;-4.40;99.90;;;;;;4992162;28;20124;-84
2021/12/22 05:36:20;;;;;;;19.25;13.85;;;-4.40;99.90;;;;;;4990622;28;20502;-84
2021/12/22 05:38:46;;;;;;;18.35;13.85;;;-4.40;99.90;;;;;;4986674;28;20477;-84
2021/12/22 05:41:13;;;;;;;22.45;15.32;;;-4.50;99.90;;;;;;4994295;28;20100;-84
2021/12/22 05:43:39;;;;;;;20.52;15.23;;;-4.50;99.90;;;;;;4994373;28;20058;-84
2021/12/22 05:46:06;;;;;;;23.20;15.88;;;-4.50;99.90;;;;;;4991433;28;20126;-84
2021/12/22 05:48:33;;;;;;;21.83;14.48;;;-4.50;99.90;;;;;;4988498;28;20041;-84
2021/12/22 05:51:01;;;;;;;20.67;15.15;;;-4.60;99.90;;;;;;4987236;28;20273;-84
2021/12/22 05:53:27;;;;;;;22.42;16.30;;;-4.60;99.90;;;;;;4990808;28;20061;-85
2021/12/22 05:55:54;;;;;;;23.45;16.40;;;-4.60;99.90;;;;;;4994392;28;20057;-84
2021/12/22 05:58:20;;;;;;;27.42;15.73;;;-4.60;99.90;;;;;;4992164;28;20058;-84
2021/12/22 06:00:47;;;;;;;27.23;15.10;;;-4.60;99.90;;;;;;4990409;28;20046;-87
2021/12/22 06:03:14;;;;;;;24.95;16.65;;;-4.60;99.90;;;;;;4986007;28;20046;-84
2021/12/22 06:05:40;;;;;;;24.02;15.77;;;-4.60;99.90;;;;;;4986254;28;20041;-82
2021/12/22 06:08:07;;;;;;;23.58;16.33;;;-4.60;99.90;;;;;;4994604;28;20057;-83
2021/12/22 06:10:34;;;;;;;25.58;16.92;;;-4.60;99.90;;;;;;4991940;28;20060;-83
2021/12/22 06:13:01;;;;;;;23.25;15.00;;;-4.60;99.90;;;;;;4992438;28;20050;-84
2021/12/22 06:15:27;;;;;;;23.95;15.63;;;-4.50;99.90;;;;;;4993164;28;20050;-83
2021/12/22 06:17:56;;;;;;;24.55;16.83;;;-4.60;99.90;;;;;;4991834;28;20046;-83
2021/12/22 06:20:23;;;;;;;24.80;16.15;;;-4.60;99.90;;;;;;4994336;28;20526;-83
2021/12/22 06:22:50;;;;;;;24.70;16.63;;;-4.60;99.90;;;;;;4991679;28;20073;-83
2021/12/22 06:25:17;;;;;;;26.75;16.80;;;-4.60;99.90;;;;;;4992394;28;20104;-83
2021/12/22 06:27:43;;;;;;;23.38;16.13;;;-4.70;99.90;;;;;;4992154;28;20046;-82
2021/12/22 06:30:10;;;;;;;22.73;15.63;;;-4.70;99.90;;;;;;4993324;28;20064;-83
2021/12/22 06:32:36;;;;;;;22.20;16.02;;;-4.70;99.90;;;;;;4992026;28;20049;-84
2021/12/22 06:35:03;;;;;;;22.90;16.20;;;-4.80;99.90;;;;;;4990367;28;20176;-84
2021/12/22 06:37:29;;;;;;;26.23;16.35;;;-4.80;99.90;;;;;;4986259;28;20060;-84
2021/12/22 06:39:56;;;;;;;23.88;17.10;;;-4.90;99.90;;;;;;4991750;28;20129;-83
2021/12/22 06:42:23;;;;;;;25.83;15.35;;;-4.80;99.90;;;;;;4992034;28;20054;-83
2021/12/22 06:44:50;;;;;;;29.80;17.13;;;-4.80;99.90;;;;;;4989788;28;20493;-83
2021/12/22 06:47:16;;;;;;;30.60;15.23;;;-4.80;99.90;;;;;;4991628;28;20053;-83
2021/12/22 06:49:43;;;;;;;25.50;17.33;;;-4.80;99.90;;;;;;4990579;28;20053;-83
2021/12/22 06:52:09;;;;;;;25.65;17.35;;;-4.80;99.90;;;;;;4989911;28;20042;-84
2021/12/22 06:54:36;;;;;;;21.85;15.52;;;-4.70;99.90;;;;;;4991378;28;20056;-83
2021/12/22 06:57:02;;;;;;;21.92;15.35;;;-4.70;99.90;;;;;;4994915;28;20049;-87
2021/12/22 06:59:29;;;;;;;29.27;16.63;;;-4.70;99.90;;;;;;4988359;28;20042;-84
2021/12/22 07:01:55;;;;;;;25.17;17.52;;;-4.70;99.90;;;;;;4991947;28;20045;-83
2021/12/22 07:04:23;;;;;;;25.17;15.70;;;-4.70;99.90;;;;;;4989208;28;20057;-84
2021/12/22 07:06:50;;;;;;;25.38;15.80;;;-4.70;99.90;;;;;;4990536;28;20355;-83
2021/12/22 07:09:16;;;;;;;24.90;15.05;;;-4.70;99.90;;;;;;4988810;28;20608;-84
2021/12/22 07:11:43;;;;;;;30.92;16.90;;;-4.70;99.90;;;;;;4991064;28;20129;-84
2021/12/22 07:14:10;;;;;;;26.95;16.25;;;-4.80;99.90;;;;;;4991739;28;20053;-84
2021/12/22 07:16:36;;;;;;;24.02;16.00;;;-4.70;99.90;;;;;;4990892;28;20080;-84
2021/12/22 07:19:03;;;;;;;25.65;16.45;;;-4.80;99.90;;;;;;4990715;28;20053;-83
2021/12/22 07:21:31;;;;;;;29.73;18.38;;;-4.80;99.90;;;;;;4990875;28;20389;-84
2021/12/22 07:23:57;;;;;;;23.25;15.43;;;-4.70;99.90;;;;;;4991938;28;20068;-85
2021/12/22 07:26:24;;;;;;;22.88;15.60;;;-4.80;99.90;;;;;;4991143;28;20046;-84
2021/12/22 07:28:50;;;;;;;27.15;16.75;;;-4.80;99.90;;;;;;4990135;28;20517;-83
2021/12/22 07:31:17;;;;;;;24.55;16.33;;;-4.70;99.90;;;;;;4992106;28;20099;-84
2021/12/22 07:33:43;;;;;;;23.85;15.85;;;-4.70;99.90;;;;;;4995585;28;20050;-83
2021/12/22 07:36:10;;;;;;;27.48;16.85;;;-4.70;99.90;;;;;;5011373;28;20046;-84
2021/12/22 07:38:36;;;;;;;26.73;16.23;;;-4.70;99.90;;;;;;4995377;28;20042;-84
2021/12/22 07:41:03;;;;;;;23.42;16.02;;;-4.70;99.90;;;;;;4993858;28;20049;-85
2021/12/22 07:43:30;;;;;;;29.27;17.52;;;-4.70;99.90;;;;;;4991800;28;20447;-84
2021/12/22 07:45:56;;;;;;;24.70;16.00;;;-4.70;99.90;;;;;;4989890;28;20072;-84
2021/12/22 07:48:23;;;;;;;25.85;16.40;;;-4.70;99.90;;;;;;4993268;28;20054;-83
2021/12/22 07:50:49;;;;;;;21.00;15.95;;;-4.70;99.90;;;;;;4990393;28;20057;-84
2021/12/22 07:53:16;;;;;;;28.55;16.48;;;-4.70;99.90;;;;;;4990060;28;20058;-83
2021/12/22 07:55:42;;;;;;;28.30;16.88;;;-4.70;99.90;;;;;;4991983;28;20054;-83
2021/12/22 07:58:09;;;;;;;29.77;16.52;;;-4.70;99.90;;;;;;4990844;28;20113;-82
2021/12/22 08:00:35;;;;;;;30.85;18.15;;;-4.70;99.90;;;;;;4991189;28;20050;-83
2021/12/22 08:03:02;;;;;;;33.70;18.48;;;-4.60;99.90;;;;;;4990828;28;20046;-81
2021/12/22 08:05:29;;;;;;;24.60;16.30;;;-4.60;99.90;;;;;;4991420;28;20046;-83
2021/12/22 08:07:56;;;;;;;33.95;17.55;;;-4.60;99.90;;;;;;4987540;28;20062;-83
2021/12/22 08:10:22;;;;;;;28.98;17.50;;;-4.60;99.90;;;;;;4989507;28;20042;-83
2021/12/22 08:12:49;;;;;;;26.90;17.38;;;-4.60;99.90;;;;;;4991742;28;20409;-83
2021/12/22 08:15:15;;;;;;;25.35;17.17;;;-4.50;99.90;;;;;;4982683;28;20497;-83
2021/12/22 08:17:42;;;;;;;32.25;18.15;;;-4.40;99.90;;;;;;4988264;28;20042;-83
2021/12/22 08:20:09;;;;;;;27.83;17.70;;;-4.40;99.90;;;;;;4976621;28;20050;-83
2021/12/22 08:22:35;;;;;;;27.83;17.80;;;-4.40;99.90;;;;;;4988309;28;20061;-83
2021/12/22 08:25:02;;;;;;;26.27;16.98;;;-4.40;99.90;;;;;;4990304;28;20045;-84
2021/12/22 08:27:28;;;;;;;31.30;18.10;;;-4.30;99.90;;;;;;4991932;28;20053;-84
2021/12/22 08:29:55;;;;;;;27.85;18.08;;;-4.30;99.90;;;;;;4989605;28;20050;-83
2021/12/22 08:32:21;;;;;;;30.75;18.42;;;-4.30;99.90;;;;;;4990614;28;20058;-84
2021/12/22 08:34:53;;;;;;;32.72;18.35;;;-4.20;99.90;;;;;;4991967;28;20050;-84
2021/12/22 08:40:04;;;;;;;26.25;18.08;;;-4.10;99.90;;;;;;4990850;28;20042;-83
2021/12/22 08:42:31;;;;;;;28.15;17.58;;;-4.00;99.90;;;;;;4992287;28;20455;-83
2021/12/22 08:44:57;;;;;;;32.25;19.13;;;-3.90;99.90;;;;;;4987941;28;20405;-84
2021/12/22 08:47:24;;;;;;;33.00;18.50;;;-3.90;99.90;;;;;;4986251;28;20054;-83
2021/12/22 08:49:50;;;;;;;30.80;16.83;;;-3.90;99.90;;;;;;4990317;28;20420;-83
2021/12/22 08:52:17;;;;;;;34.63;20.67;;;-3.90;99.90;;;;;;4986676;28;20369;-83
2021/12/22 08:54:43;;;;;;;32.35;18.52;;;-3.90;99.90;;;;;;4989450;28;20630;-84
2021/12/22 08:57:10;;;;;;;27.77;17.08;;;-3.80;99.90;;;;;;4989300;28;20503;-83
2021/12/22 08:59:37;;;;;;;29.27;17.25;;;-3.80;99.90;;;;;;4982457;28;20108;-83
2021/12/22 09:02:03;;;;;;;28.45;17.98;;;-3.70;99.90;;;;;;4991233;28;20056;-83
2021/12/22 09:04:30;;;;;;;30.60;18.73;;;-3.60;99.90;;;;;;4985943;28;20065;-83
2021/12/22 09:06:56;;;;;;;25.65;17.10;;;-3.60;99.90;;;;;;4988773;28;20046;-83
2021/12/22 09:09:23;;;;;;;33.05;19.38;;;-3.50;99.90;;;;;;4989380;28;20057;-84
2021/12/22 09:11:49;;;;;;;30.77;19.70;;;-3.50;99.90;;;;;;4984033;28;20050;-83
2021/12/22 09:14:16;;;;;;;26.75;19.23;;;-3.40;99.90;;;;;;4995727;28;20068;-83
2021/12/22 09:16:42;;;;;;;32.13;19.55;;;-3.40;99.90;;;;;;5000699;28;20050;-83
2021/12/22 09:19:09;;;;;;;28.95;18.75;;;-3.30;99.90;;;;;;4988819;28;20060;-83
2021/12/22 09:21:35;;;;;;;26.17;17.50;;;-3.30;99.90;;;;;;4995584;28;20053;-82
2021/12/22 09:24:02;;;;;;;33.28;19.80;;;-3.30;99.90;;;;;;4987889;28;20053;-84
2021/12/22 09:26:28;;;;;;;35.33;19.45;;;-3.20;99.90;;;;;;4990154;28;20077;-84
2021/12/22 09:28:55;;;;;;;29.95;18.90;;;-3.20;99.90;;;;;;4986778;28;20058;-83
2021/12/22 09:31:22;;;;;;;30.88;19.33;;;-3.20;99.90;;;;;;4988191;28;20058;-83
2021/12/22 09:33:48;;;;;;;31.08;19.73;;;-3.10;99.90;;;;;;4992105;28;20046;-84
2021/12/22 09:36:15;;;;;;;32.22;19.60;;;-3.10;99.90;;;;;;4975584;28;20050;-83
2021/12/22 09:38:41;;;;;;;33.45;18.05;;;-3.10;99.90;;;;;;4981763;28;20404;-83
2021/12/22 09:41:08;;;;;;;32.63;19.92;;;-3.00;99.90;;;;;;4980258;28;20525;-82
2021/12/22 09:43:35;;;;;;;33.47;19.83;;;-3.00;99.90;;;;;;4984132;28;20506;-83
2021/12/22 09:46:05;;;;;;;33.17;19.35;;;-3.00;99.90;;;;;;4984251;28;20426;-83
2021/12/22 09:48:37;;;;;;;28.38;20.38;;;-2.90;99.90;;;;;;4984291;28;20146;-83
2021/12/22 09:53:48;;;;;;;33.97;20.95;;;-2.80;99.90;;;;;;4986779;28;20050;-83
2021/12/22 09:56:15;;;;;;;33.63;20.10;;;-2.80;99.90;;;;;;4979632;28;20058;-83
2021/12/22 09:58:42;;;;;;;35.20;20.60;;;-2.70;99.90;;;;;;4980654;28;20061;-83
2021/12/22 10:01:08;;;;;;;32.85;20.20;;;-2.60;99.90;;;;;;4983292;28;20349;-83
2021/12/22 10:03:35;;;;;;;37.03;20.02;;;-2.60;99.90;;;;;;4984724;28;20057;-83
2021/12/22 10:06:02;;;;;;;30.50;20.20;;;-2.50;99.90;;;;;;4988785;28;20049;-84
2021/12/22 10:08:29;;;;;;;31.67;19.02;;;-2.50;99.90;;;;;;4987491;28;20773;-84
2021/12/22 10:10:55;;;;;;;31.38;19.17;;;-2.40;99.90;;;;;;4989672;28;20050;-83
2021/12/22 10:13:22;;;;;;;32.28;18.35;;;-2.40;99.90;;;;;;4984690;28;20053;-83
2021/12/22 10:15:49;;;;;;;30.33;18.65;;;-2.30;99.90;;;;;;4988630;28;20145;-83
2021/12/22 10:18:16;;;;;;;31.70;19.10;;;-2.20;99.90;;;;;;4986152;28;20049;-83
2021/12/22 10:20:42;;;;;;;34.90;18.38;;;-2.20;99.90;;;;;;4986646;28;20053;-83
2021/12/22 10:23:09;;;;;;;35.28;18.35;;;-2.20;99.90;;;;;;4986082;28;20588;-83
2021/12/22 10:25:35;;;;;;;38.47;19.67;;;-2.10;99.90;;;;;;4982573;28;20500;-83
2021/12/22 10:28:02;;;;;;;34.88;20.75;;;-2.00;99.90;;;;;;4989454;28;21415;-84
2021/12/22 10:30:29;;;;;;;32.22;19.40;;;-1.90;99.90;;;;;;4986831;28;20054;-83
2021/12/22 10:32:55;;;;;;;32.83;16.77;;;-1.90;99.90;;;;;;4988989;28;20120;-83
2021/12/22 10:35:22;;;;;;;32.90;18.65;;;-1.80;99.90;;;;;;4987460;28;20165;-84
2021/12/22 10:37:48;;;;;;;29.90;17.85;;;-1.70;99.90;;;;;;4988919;28;20065;-83
2021/12/22 10:40:15;;;;;;;31.05;19.23;;;-1.70;99.90;;;;;;4986944;28;20054;-83
2021/12/22 10:42:41;;;;;;;35.10;20.40;;;-1.70;99.90;;;;;;4983398;28;20058;-84
2021/12/22 10:45:08;;;;;;;28.73;18.70;;;-1.70;99.90;;;;;;4981317;28;20498;-83
2021/12/22 10:49:14;;;;;;;30.52;19.80;;;-1.70;99.90;;;;;;4980587;28;20045;-84
2021/12/22 10:50:20;;;;;;;28.88;18.75;;;-1.60;99.90;;;;;;4986101;28;20104;-83
2021/12/22 10:52:46;;;;;;;42.30;20.38;;;-1.50;99.90;;;;;;4978780;28;20050;-84
2021/12/22 10:55:13;;;;;;;28.73;18.73;;;-1.50;99.90;;;;;;4983325;28;20096;-84
2021/12/22 10:57:40;;;;;;;27.05;18.48;;;-1.40;99.90;;;;;;4986960;28;20064;-83
2021/12/22 11:00:06;;;;;;;25.42;16.77;;;-1.30;99.90;;;;;;4989899;28;20057;-83
2021/12/22 11:02:35;;;;;;;31.20;18.10;;;-1.30;99.90;;;;;;4986241;28;20053;-83
2021/12/22 11:05:06;;;;;;;31.83;18.67;;;-1.20;99.90;;;;;;4987584;28;20050;-83
2021/12/22 11:07:40;;;;;;;;;;;-1.20;99.90;;;;;;4988343;28;20085;-83
2021/12/22 11:10:06;;;;;;;34.90;19.83;;;-1.10;99.90;;;;;;4989628;28;20364;-83
2021/12/22 11:12:33;;;;;;;28.25;17.20;;;-1.00;99.90;;;;;;4994674;28;20053;-83
2021/12/22 11:14:59;;;;;;;28.88;19.90;;;-1.00;99.90;;;;;;4992782;28;20076;-83
2021/12/22 11:17:26;;;;;;;28.70;19.70;;;-1.00;99.90;;;;;;4994788;28;20053;-83
2021/12/22 11:19:57;;;;;;;35.22;19.00;;;-0.90;99.90;;;;;;4992752;28;20053;-82
2021/12/22 11:22:36;;;;;;;26.85;16.90;;;-0.90;99.90;;;;;;4991654;28;20058;-83
2021/12/22 11:25:02;;;;;;;26.30;19.08;;;-0.70;99.90;;;;;;4990512;28;20527;-83
2021/12/22 11:27:29;;;;;;;22.55;15.25;;;-0.60;99.90;;;;;;4980997;28;20738;-82
2021/12/22 11:29:55;;;;;;;25.80;16.60;;;-0.70;99.90;;;;;;4993739;28;20408;-83
2021/12/22 11:32:22;;;;;;;26.35;15.95;;;-0.70;99.90;;;;;;4991217;28;20046;-83
2021/12/22 11:34:48;;;;;;;19.73;14.85;;;-0.70;99.90;;;;;;4990971;28;20515;-83
2021/12/22 11:37:15;;;;;;;21.02;14.40;;;-0.70;99.90;;;;;;4990245;28;20049;-82
2021/12/22 11:39:42;;;;;;;19.25;13.25;;;-0.70;99.90;;;;;;4990764;28;20065;-83
2021/12/22 11:42:09;;;;;;;17.50;13.68;;;-0.70;99.90;;;;;;4992232;28;20105;-83
2021/12/22 11:44:36;;;;;;;26.08;16.05;;;-0.60;99.90;;;;;;4992409;28;20046;-83
2021/12/22 11:47:02;;;;;;;25.58;14.40;;;-0.50;99.90;;;;;;4992445;28;20061;-82
2021/12/22 11:49:29;;;;;;;19.20;13.68;;;-0.50;99.90;;;;;;4992004;28;20057;-82
2021/12/22 11:51:56;;;;;;;23.63;14.27;;;-0.40;99.90;;;;;;4990007;28;20489;-83
2021/12/22 11:54:26;;;;;;;31.17;16.50;;;-0.40;99.90;;;;;;4992650;28;20104;-83
2021/12/22 11:56:53;;;;;;;24.55;14.07;;;-0.40;99.90;;;;;;4991607;28;20058;-83
2021/12/22 11:59:19;;;;;;;18.92;12.70;;;-0.30;99.90;;;;;;4991042;28;20054;-83
2021/12/22 12:01:46;;;;;;;19.23;13.02;;;-0.30;99.90;;;;;;4995793;28;20041;-83
2021/12/22 12:04:13;;;;;;;24.75;12.52;;;-0.30;99.90;;;;;;4994883;28;20045;-83
2021/12/22 12:06:39;;;;;;;20.65;14.55;;;-0.30;99.90;;;;;;4995596;28;20042;-83
2021/12/22 12:09:06;;;;;;;21.58;13.80;;;-0.30;99.90;;;;;;4998510;28;20048;-83
2021/12/22 12:11:32;;;;;;;23.23;14.75;;;-0.30;99.90;;;;;;4992382;28;20084;-83
2021/12/22 12:14:05;;;;;;;23.33;14.57;;;-0.30;99.90;;;;;;4996580;28;20489;-83
2021/12/22 12:22:00;;;;;;;23.08;14.55;;;-0.20;99.90;;;;;;4985577;28;20053;-83
2021/12/22 12:24:27;;;;;;;23.85;14.48;;;-0.20;99.90;;;;;;4994222;28;20062;-83
2021/12/22 12:26:53;;;;;;;21.55;14.40;;;-0.20;99.90;;;;;;4996131;28;20045;-83
2021/12/22 12:29:20;;;;;;;18.95;13.60;;;-0.20;99.90;;;;;;4993967;28;20105;-82
2021/12/22 12:31:46;;;;;;;20.77;14.30;;;-0.10;99.90;;;;;;4995721;28;20056;-83
2021/12/22 12:34:13;;;;;;;24.73;14.45;;;-0.20;99.90;;;;;;4994833;28;20041;-84
2021/12/22 12:36:39;;;;;;;25.95;14.13;;;-0.20;99.90;;;;;;4994462;28;20057;-83
2021/12/22 12:39:06;;;;;;;22.65;14.43;;;-0.20;99.90;;;;;;4992388;28;20054;-83
2021/12/22 12:41:34;;;;;;;19.75;13.07;;;-0.20;99.90;;;;;;4992611;28;20070;-83